createdAt,value
2018-09-19T00:00:42.811Z,54.31
2018-09-19T00:03:11.835Z,54.85
2018-09-19T00:05:41.362Z,55.33
2018-09-19T00:08:11.349Z,55.47
2018-09-19T00:10:40.655Z,54.71
2018-09-19T00:13:09.709Z,55.55
2018-09-19T00:15:38.962Z,55.79
2018-09-19T00:18:07.950Z,55.05
2018-09-19T00:20:37.432Z,55.90
2018-09-19T00:23:06.525Z,55.94
2018-09-19T00:25:35.749Z,55.78
2018-09-19T00:28:05.050Z,55.85
2018-09-19T00:30:34.399Z,56.07
2018-09-19T00:33:03.870Z,55.62
2018-09-19T00:35:32.851Z,55.83
2018-09-19T00:38:02.112Z,56.09
2018-09-19T00:40:31.944Z,55.34
2018-09-19T00:43:00.914Z,55.58
2018-09-19T00:45:30.315Z,56.16
2018-09-19T00:47:59.656Z,55.92
2018-09-19T00:50:28.797Z,55.71
2018-09-19T00:52:57.885Z,56.10
2018-09-19T00:55:26.868Z,56.03
2018-09-19T00:57:55.988Z,56.67
2018-09-19T01:00:25.102Z,56.67
2018-09-19T01:02:55.014Z,56.18
2018-09-19T01:05:24.180Z,56.36
2018-09-19T01:07:53.438Z,55.46
2018-09-19T01:10:23.395Z,56.15
2018-09-19T01:12:52.412Z,56.44
2018-09-19T01:15:21.394Z,56.21
2018-09-19T01:17:50.352Z,56.07
2018-09-19T01:20:19.540Z,56.43
2018-09-19T01:22:48.624Z,56.66
2018-09-19T01:25:18.525Z,57.18
2018-09-19T01:27:47.672Z,57.40
2018-09-19T01:30:16.939Z,57.35
2018-09-19T01:32:46.465Z,57.06
2018-09-19T01:35:15.481Z,57.61
2018-09-19T01:37:44.620Z,57.10
2018-09-19T01:40:13.838Z,56.98
2018-09-19T01:42:42.811Z,56.90
2018-09-19T01:45:12.011Z,56.93
2018-09-19T01:47:41.248Z,57.16
2018-09-19T01:50:10.456Z,57.77
2018-09-19T01:52:39.632Z,57.14
2018-09-19T01:55:08.802Z,56.51
2018-09-19T01:57:37.771Z,57.39
2018-09-19T02:00:07.091Z,57.04
2018-09-19T02:02:36.086Z,57.37
2018-09-19T02:05:06.510Z,56.46
2018-09-19T02:07:35.545Z,56.74
2018-09-19T02:10:04.902Z,57.33
2018-09-19T02:12:34.153Z,56.76
2018-09-19T02:15:06.225Z,56.97
2018-09-19T02:17:35.343Z,57.35
2018-09-19T02:20:05.120Z,56.49
2018-09-19T02:22:34.242Z,57.07
2018-09-19T02:25:03.969Z,56.64
2018-09-19T02:27:33.334Z,56.85
2018-09-19T02:30:02.591Z,57.80
2018-09-19T02:32:32.006Z,57.52
2018-09-19T02:35:01.415Z,57.61
2018-09-19T02:37:30.410Z,57.18
2018-09-19T02:39:59.548Z,57.11
2018-09-19T02:42:28.804Z,57.25
2018-09-19T02:44:57.932Z,57.70
2018-09-19T02:47:27.229Z,57.01
2018-09-19T02:49:56.390Z,57.16
2018-09-19T02:52:25.705Z,57.56
2018-09-19T02:54:54.816Z,57.29
2018-09-19T02:57:23.878Z,57.82
2018-09-19T02:59:53.422Z,57.89
2018-09-19T03:02:22.566Z,57.44
2018-09-19T03:04:51.696Z,57.63
2018-09-19T03:07:21.446Z,57.72
2018-09-19T03:09:50.861Z,57.49
2018-09-19T03:12:20.150Z,57.57
2018-09-19T03:14:49.372Z,57.24
2018-09-19T03:17:24.955Z,57.39
2018-09-19T03:19:54.174Z,58.10
2018-09-19T03:22:23.390Z,58.29
2018-09-19T03:24:52.647Z,58.50
2018-09-19T03:27:21.953Z,58.28
2018-09-19T03:29:51.626Z,57.58
2018-09-19T03:32:21.024Z,58.25
2018-09-19T03:34:50.431Z,58.07
2018-09-19T03:37:19.623Z,58.40
2018-09-19T03:39:48.958Z,57.54
2018-09-19T03:42:18.161Z,58.12
2018-09-19T03:44:47.144Z,58.27
2018-09-19T03:47:16.089Z,58.00
2018-09-19T03:49:45.406Z,57.80
2018-09-19T03:52:15.019Z,58.34
2018-09-19T03:54:44.232Z,57.99
2018-09-19T03:57:13.445Z,58.30
2018-09-19T03:59:42.649Z,58.98
2018-09-19T04:02:12.560Z,59.31
2018-09-19T04:04:41.864Z,59.04
2018-09-19T04:07:11.189Z,58.88
2018-09-19T04:09:40.565Z,59.16
2018-09-19T04:12:09.999Z,59.24
2018-09-19T04:14:39.402Z,59.40
2018-09-19T04:17:08.556Z,59.47
2018-09-19T04:19:37.725Z,59.88
2018-09-19T04:22:07.700Z,59.80
2018-09-19T04:24:37.443Z,60.10
2018-09-19T04:27:06.924Z,60.41
2018-09-19T04:29:36.126Z,59.80
2018-09-19T04:32:05.487Z,60.38
2018-09-19T04:34:34.676Z,59.89
2018-09-19T04:37:04.819Z,59.98
2018-09-19T04:39:34.068Z,60.16
2018-09-19T04:42:03.244Z,60.51
2018-09-19T04:44:32.538Z,60.00
2018-09-19T04:47:01.822Z,60.65
2018-09-19T04:49:31.222Z,60.51
2018-09-19T04:52:00.304Z,59.99
2018-09-19T04:54:29.668Z,60.34
2018-09-19T04:56:58.986Z,60.48
2018-09-19T04:59:28.267Z,59.87
2018-09-19T05:01:57.837Z,60.25
2018-09-19T05:04:27.068Z,60.27
2018-09-19T05:06:56.062Z,59.55
2018-09-19T05:09:25.907Z,60.09
2018-09-19T05:11:55.793Z,59.95
2018-09-19T05:14:25.000Z,59.65
2018-09-19T05:16:54.008Z,59.41
2018-09-19T05:19:23.262Z,60.04
2018-09-19T05:21:52.356Z,59.99
2018-09-19T05:24:21.679Z,60.21
2018-09-19T05:26:51.028Z,59.53
2018-09-19T05:29:20.368Z,60.22
2018-09-19T05:31:49.809Z,59.41
2018-09-19T05:34:18.861Z,60.46
2018-09-19T05:36:48.094Z,59.91
2018-09-19T05:39:17.396Z,59.92
2018-09-19T05:41:47.584Z,60.92
2018-09-19T05:44:16.874Z,60.20
2018-09-19T05:46:46.045Z,60.49
2018-09-19T05:49:15.097Z,60.90
2018-09-19T05:51:44.318Z,60.58
2018-09-19T05:54:13.424Z,60.62
2018-09-19T05:56:42.581Z,60.91
2018-09-19T05:59:11.842Z,60.60
2018-09-19T06:01:41.521Z,60.92
2018-09-19T06:04:10.669Z,60.13
2018-09-19T06:06:40.217Z,60.72
2018-09-19T06:09:10.705Z,60.00
2018-09-19T06:11:41.513Z,60.20
2018-09-19T06:14:10.619Z,59.74
2018-09-19T06:16:39.775Z,59.42
2018-09-19T06:19:09.048Z,59.30
2018-09-19T06:21:38.485Z,59.30
2018-09-19T06:24:08.079Z,59.28
2018-09-19T06:26:37.460Z,59.54
2018-09-19T06:29:06.941Z,59.97
2018-09-19T06:31:36.024Z,59.11
2018-09-19T06:34:05.430Z,59.40
2018-09-19T06:36:34.707Z,59.32
2018-09-19T06:39:04.986Z,59.58
2018-09-19T06:41:34.001Z,59.60
2018-09-19T06:44:03.443Z,59.38
2018-09-19T06:46:32.785Z,60.22
2018-09-19T06:49:02.753Z,59.44
2018-09-19T06:51:32.093Z,59.67
2018-09-19T06:54:01.606Z,59.88
2018-09-19T06:56:30.693Z,59.75
2018-09-19T06:58:59.884Z,59.09
2018-09-19T07:01:29.038Z,59.49
2018-09-19T07:03:58.523Z,59.63
2018-09-19T07:06:27.827Z,58.90
2018-09-19T07:08:57.014Z,58.62
2018-09-19T07:11:26.331Z,59.02
2018-09-19T07:13:55.403Z,58.95
2018-09-19T07:16:24.718Z,58.15
2018-09-19T07:18:54.308Z,58.62
2018-09-19T07:21:24.193Z,57.80
2018-09-19T07:23:53.709Z,57.74
2018-09-19T07:26:23.548Z,58.03
2018-09-19T07:28:52.911Z,57.94
2018-09-19T07:31:22.104Z,57.63
2018-09-19T07:33:51.604Z,56.95
2018-09-19T07:36:21.815Z,57.03
2018-09-19T07:38:51.179Z,57.33
2018-09-19T07:41:20.169Z,57.17
2018-09-19T07:43:49.581Z,56.86
2018-09-19T07:46:19.014Z,56.79
2018-09-19T07:48:48.480Z,56.85
2018-09-19T07:51:17.482Z,56.39
2018-09-19T07:53:46.428Z,56.58
2018-09-19T07:56:15.377Z,56.59
2018-09-19T07:58:44.318Z,56.63
2018-09-19T08:01:13.662Z,55.81
2018-09-19T08:03:43.139Z,55.94
2018-09-19T08:06:12.398Z,55.56
2018-09-19T08:08:41.518Z,55.63
2018-09-19T08:11:10.964Z,55.41
2018-09-19T08:13:40.178Z,55.18
2018-09-19T08:16:09.861Z,55.68
2018-09-19T08:18:39.182Z,55.41
2018-09-19T08:21:08.450Z,55.81
2018-09-19T08:23:37.516Z,54.81
2018-09-19T08:26:06.827Z,55.50
2018-09-19T08:28:36.284Z,54.61
2018-09-19T08:31:05.687Z,54.99
2018-09-19T08:33:35.128Z,54.79
2018-09-19T08:36:04.537Z,54.34
2018-09-19T08:38:33.737Z,54.21
2018-09-19T08:41:03.094Z,54.43
2018-09-19T08:43:32.147Z,54.56
2018-09-19T08:46:01.434Z,54.25
2018-09-19T08:48:30.850Z,53.64
2018-09-19T08:51:00.133Z,53.35
2018-09-19T08:53:30.605Z,53.88
2018-09-19T08:55:59.944Z,53.92
2018-09-19T08:58:29.392Z,53.84
2018-09-19T09:00:59.595Z,53.17
2018-09-19T09:03:28.622Z,52.55
2018-09-19T09:05:57.932Z,53.10
2018-09-19T09:08:27.950Z,53.27
2018-09-19T09:10:57.621Z,53.12
2018-09-19T09:13:27.518Z,51.97
2018-09-19T09:15:56.738Z,51.70
2018-09-19T09:18:26.005Z,52.16
2018-09-19T09:20:55.907Z,51.04
2018-09-19T09:23:24.892Z,51.21
2018-09-19T09:25:53.959Z,50.84
2018-09-19T09:28:23.222Z,51.16
2018-09-19T09:30:52.266Z,50.92
2018-09-19T09:33:21.539Z,50.28
2018-09-19T09:35:50.760Z,49.92
2018-09-19T09:38:19.920Z,49.74
2018-09-19T09:40:49.388Z,49.92
2018-09-19T09:43:18.855Z,50.16
2018-09-19T09:45:48.747Z,50.21
2018-09-19T09:48:17.919Z,50.34
2018-09-19T09:50:47.240Z,49.60
2018-09-19T09:53:16.549Z,50.52
2018-09-19T09:55:45.665Z,50.48
2018-09-19T09:58:15.135Z,50.79
2018-09-19T10:00:44.514Z,50.60
2018-09-19T10:03:14.077Z,50.52
2018-09-19T10:05:43.850Z,49.73
2018-09-19T10:08:13.591Z,49.76
2018-09-19T10:10:42.695Z,49.44
2018-09-19T10:13:12.214Z,49.16
2018-09-19T10:15:41.408Z,49.54
2018-09-19T10:18:10.792Z,50.36
2018-09-19T10:20:39.956Z,50.38
2018-09-19T10:23:09.279Z,50.38
2018-09-19T10:25:38.401Z,49.82
2018-09-19T10:28:07.505Z,48.67
2018-09-19T10:30:36.689Z,48.61
2018-09-19T10:33:06.148Z,48.02
2018-09-19T10:35:35.683Z,48.95
2018-09-19T10:38:04.955Z,48.46
2018-09-19T10:40:34.393Z,48.38
2018-09-19T10:43:03.583Z,49.13
2018-09-19T10:45:33.076Z,48.71
2018-09-19T10:48:02.178Z,48.47
2018-09-19T10:50:32.256Z,48.21
2018-09-19T10:53:01.470Z,48.13
2018-09-19T10:55:30.743Z,48.47
2018-09-19T10:58:00.540Z,47.96
2018-09-19T11:00:30.071Z,48.60
2018-09-19T11:02:59.610Z,47.81
2018-09-19T11:05:29.022Z,48.16
2018-09-19T11:07:58.887Z,47.74
2018-09-19T11:10:28.033Z,46.75
2018-09-19T11:13:03.599Z,46.52
2018-09-19T11:15:33.443Z,47.10
2018-09-19T11:18:02.564Z,46.53
2018-09-19T11:20:31.611Z,46.56
2018-09-19T11:23:01.324Z,47.44
2018-09-19T11:25:30.495Z,46.74
2018-09-19T11:27:59.556Z,47.27
2018-09-19T11:30:28.639Z,46.83
2018-09-19T11:32:58.084Z,46.22
2018-09-19T11:35:27.363Z,46.53
2018-09-19T11:37:56.671Z,46.14
2018-09-19T11:40:25.963Z,46.90
2018-09-19T11:42:55.854Z,46.77
2018-09-19T11:45:24.986Z,47.03
2018-09-19T11:47:54.440Z,46.85
2018-09-19T11:50:23.588Z,46.91
2018-09-19T11:52:52.705Z,47.02
2018-09-19T11:55:22.395Z,46.21
2018-09-19T11:57:52.104Z,46.61
2018-09-19T12:00:21.849Z,46.20
2018-09-19T12:02:51.041Z,46.36
2018-09-19T12:05:20.132Z,45.23
2018-09-19T12:07:50.383Z,46.19
2018-09-19T12:10:19.376Z,45.45
2018-09-19T12:12:49.446Z,45.53
2018-09-19T12:15:19.057Z,45.45
2018-09-19T12:17:48.255Z,46.09
2018-09-19T12:20:17.261Z,45.28
2018-09-19T12:22:46.705Z,45.33
2018-09-19T12:25:15.847Z,45.14
2018-09-19T12:27:45.176Z,45.28
2018-09-19T12:30:14.292Z,45.99
2018-09-19T12:32:44.167Z,46.25
2018-09-19T12:35:13.436Z,45.75
2018-09-19T12:37:42.557Z,45.69
2018-09-19T12:40:11.625Z,45.89
2018-09-19T12:42:41.206Z,45.82
2018-09-19T12:45:10.408Z,46.35
2018-09-19T12:47:39.509Z,45.86
2018-09-19T12:50:08.541Z,45.56
2018-09-19T12:52:37.519Z,45.83
2018-09-19T12:55:06.735Z,45.60
2018-09-19T12:57:35.837Z,46.04
2018-09-19T13:00:05.132Z,46.25
2018-09-19T13:02:34.410Z,45.74
2018-09-19T13:05:03.566Z,45.85
2018-09-19T13:07:32.838Z,45.75
2018-09-19T13:10:02.021Z,46.34
2018-09-19T13:12:31.058Z,46.59
2018-09-19T13:15:00.512Z,45.88
2018-09-19T13:17:30.018Z,45.85
2018-09-19T13:19:59.285Z,45.90
2018-09-19T13:22:28.397Z,46.70
2018-09-19T13:24:57.852Z,46.45
2018-09-19T13:27:27.131Z,46.84
2018-09-19T13:29:56.496Z,46.25
2018-09-19T13:32:25.949Z,46.86
2018-09-19T13:34:55.060Z,46.91
2018-09-19T13:37:24.027Z,46.90
2018-09-19T13:39:53.510Z,46.32
2018-09-19T13:42:22.595Z,45.84
2018-09-19T13:44:51.888Z,46.25
2018-09-19T13:47:20.901Z,45.53
2018-09-19T13:49:54.834Z,46.54
2018-09-19T13:52:23.702Z,45.95
2018-09-19T13:54:53.395Z,46.27
2018-09-19T13:57:22.715Z,45.58
2018-09-19T13:59:53.101Z,46.08
2018-09-19T14:02:22.484Z,45.43
2018-09-19T14:04:52.137Z,45.73
2018-09-19T14:07:21.371Z,45.55
2018-09-19T14:09:50.608Z,45.55
2018-09-19T14:12:20.282Z,46.36
2018-09-19T14:14:49.898Z,46.25
2018-09-19T14:17:18.902Z,45.88
2018-09-19T14:19:47.870Z,46.46
2018-09-19T14:22:17.124Z,46.61
2018-09-19T14:24:47.030Z,46.70
2018-09-19T14:27:16.286Z,46.02
2018-09-19T14:29:45.761Z,45.99
2018-09-19T14:32:14.995Z,46.85
2018-09-19T14:34:45.427Z,46.64
2018-09-19T14:37:15.114Z,46.94
2018-09-19T14:39:44.367Z,46.56
2018-09-19T14:42:13.666Z,46.16
2018-09-19T14:44:42.935Z,45.96
2018-09-19T14:47:12.031Z,46.28
2018-09-19T14:49:41.425Z,45.86
2018-09-19T14:52:10.537Z,45.21
2018-09-19T14:54:39.812Z,44.36
2018-09-19T14:57:09.591Z,44.40
2018-09-19T14:59:38.869Z,44.66
2018-09-19T15:02:08.120Z,44.21
2018-09-19T15:04:37.270Z,44.16
2018-09-19T15:07:06.789Z,45.14
2018-09-19T15:09:35.725Z,44.35
2018-09-19T15:12:05.015Z,44.26
2018-09-19T15:14:34.156Z,43.95
2018-09-19T15:17:03.428Z,43.86
2018-09-19T15:19:32.804Z,43.57
2018-09-19T15:22:02.189Z,44.73
2018-09-19T15:24:31.688Z,44.57
2018-09-19T15:27:01.551Z,44.79
2018-09-19T15:29:30.490Z,44.72
2018-09-19T15:31:59.845Z,44.15
2018-09-19T15:34:29.017Z,44.05
2018-09-19T15:36:58.579Z,43.99
2018-09-19T15:39:28.102Z,44.14
2018-09-19T15:41:57.151Z,44.38
2018-09-19T15:44:26.553Z,44.38
2018-09-19T15:46:56.136Z,44.64
2018-09-19T15:49:25.438Z,45.23
2018-09-19T15:51:54.707Z,45.35
2018-09-19T15:54:24.335Z,44.86
2018-09-19T15:56:53.498Z,44.60
2018-09-19T15:59:22.559Z,44.75
2018-09-19T16:01:51.489Z,44.83
2018-09-19T16:04:20.918Z,44.82
2018-09-19T16:06:51.984Z,45.33
2018-09-19T16:09:21.103Z,44.94
2018-09-19T16:11:50.547Z,44.84
2018-09-19T16:14:19.949Z,44.86
2018-09-19T16:16:48.927Z,44.45
2018-09-19T16:19:18.311Z,44.29
2018-09-19T16:21:47.480Z,43.65
2018-09-19T16:24:16.624Z,43.90
2018-09-19T16:26:45.600Z,43.65
2018-09-19T16:29:14.796Z,44.02
2018-09-19T16:31:44.124Z,43.38
2018-09-19T16:34:13.196Z,44.04
2018-09-19T16:36:42.846Z,43.57
2018-09-19T16:39:12.992Z,44.67
2018-09-19T16:41:42.468Z,43.99
2018-09-19T16:44:12.215Z,44.60
2018-09-19T16:46:41.901Z,44.77
2018-09-19T16:49:11.138Z,43.73
2018-09-19T16:51:40.890Z,44.40
2018-09-19T16:54:09.886Z,44.19
2018-09-19T16:56:38.895Z,43.94
2018-09-19T16:59:08.703Z,44.64
2018-09-19T17:01:37.775Z,44.89
2018-09-19T17:04:06.792Z,44.04
2018-09-19T17:06:36.020Z,44.21
2018-09-19T17:09:06.188Z,44.39
2018-09-19T17:11:35.386Z,45.05
2018-09-19T17:14:04.471Z,44.72
2018-09-19T17:16:33.793Z,44.50
2018-09-19T17:19:03.245Z,44.74
2018-09-19T17:21:32.405Z,45.22
2018-09-19T17:24:01.436Z,45.15
2018-09-19T17:26:30.700Z,44.53
2018-09-19T17:29:00.320Z,44.62
2018-09-19T17:31:29.606Z,44.74
2018-09-19T17:33:58.978Z,44.93
2018-09-19T17:36:28.325Z,44.69
2018-09-19T17:38:57.866Z,43.87
2018-09-19T17:41:27.311Z,44.01
2018-09-19T17:43:56.417Z,42.84
2018-09-19T17:46:25.846Z,42.10
2018-09-19T17:48:55.704Z,41.49
2018-09-19T17:51:25.157Z,41.49
2018-09-19T17:53:54.374Z,40.34
2018-09-19T17:56:23.932Z,39.87
2018-09-19T17:58:53.150Z,39.59
2018-09-19T18:01:22.989Z,39.82
2018-09-19T18:03:52.031Z,38.97
2018-09-19T18:06:21.557Z,38.89
2018-09-19T18:08:50.728Z,38.98
2018-09-19T18:11:19.911Z,39.02
2018-09-19T18:13:50.142Z,40.64
2018-09-19T18:16:19.377Z,40.06
2018-09-19T18:18:48.831Z,40.27
2018-09-19T18:21:18.335Z,40.45
2018-09-19T18:23:47.381Z,40.88
2018-09-19T18:26:16.453Z,42.50
2018-09-19T18:28:45.595Z,42.10
2018-09-19T18:31:14.976Z,42.62
2018-09-19T18:33:44.188Z,43.39
2018-09-19T18:36:13.099Z,43.92
2018-09-19T18:38:42.465Z,44.69
2018-09-19T18:41:11.549Z,44.49
2018-09-19T18:43:40.643Z,44.87
2018-09-19T18:46:10.678Z,45.47
2018-09-19T18:48:39.795Z,45.60
2018-09-19T18:51:09.249Z,46.22
2018-09-19T18:53:38.747Z,46.60
2018-09-19T18:56:08.202Z,47.91
2018-09-19T18:58:37.317Z,47.73
2018-09-19T19:01:06.609Z,47.48
2018-09-19T19:03:35.908Z,48.59
2018-09-19T19:06:05.541Z,48.46
2018-09-19T19:08:35.178Z,49.28
2018-09-19T19:11:04.307Z,49.00
2018-09-19T19:13:33.724Z,49.75
2018-09-19T19:16:03.128Z,49.69
2018-09-19T19:18:32.636Z,49.96
2018-09-19T19:21:02.095Z,49.71
2018-09-19T19:23:31.340Z,49.91
2018-09-19T19:26:00.601Z,50.34
2018-09-19T19:28:29.921Z,50.71
2018-09-19T19:30:59.252Z,50.30
2018-09-19T19:33:28.690Z,50.09
2018-09-19T19:35:58.135Z,50.84
2018-09-19T19:38:28.813Z,50.45
2018-09-19T19:40:58.347Z,50.60
2018-09-19T19:43:27.736Z,50.80
2018-09-19T19:45:57.484Z,50.93
2018-09-19T19:48:26.844Z,51.51
2018-09-19T19:50:56.081Z,51.19
2018-09-19T19:53:25.383Z,51.74
2018-09-19T19:55:55.062Z,51.31
2018-09-19T19:58:24.644Z,52.37
2018-09-19T20:00:54.456Z,51.81
2018-09-19T20:03:23.797Z,52.39
2018-09-19T20:05:53.107Z,52.68
2018-09-19T20:08:22.298Z,53.01
2018-09-19T20:10:51.352Z,53.29
2018-09-19T20:13:20.714Z,53.05
2018-09-19T20:15:49.967Z,53.23
2018-09-19T20:18:18.917Z,53.28
2018-09-19T20:20:48.375Z,53.44
2018-09-19T20:23:17.650Z,53.13
2018-09-19T20:25:47.312Z,53.90
2018-09-19T20:28:16.639Z,54.00
2018-09-19T20:30:45.837Z,54.31
2018-09-19T20:33:15.123Z,54.22
2018-09-19T20:35:44.244Z,54.32
2018-09-19T20:38:13.998Z,53.98
2018-09-19T20:40:42.938Z,54.07
2018-09-19T20:43:12.016Z,54.37
2018-09-19T20:45:41.228Z,54.83
2018-09-19T20:48:10.918Z,54.77
2018-09-19T20:50:40.176Z,55.11
2018-09-19T20:53:09.441Z,55.51
2018-09-19T20:55:38.625Z,55.37
2018-09-19T20:58:07.729Z,55.27
2018-09-19T21:00:37.124Z,55.89
2018-09-19T21:03:06.617Z,55.80
2018-09-19T21:05:35.900Z,55.63
2018-09-19T21:08:05.242Z,55.36
2018-09-19T21:10:34.624Z,56.54
2018-09-19T21:13:03.870Z,55.93
2018-09-19T21:15:33.348Z,56.82
2018-09-19T21:18:02.753Z,57.04
2018-09-19T21:20:32.155Z,56.41
2018-09-19T21:23:01.265Z,57.43
2018-09-19T21:25:30.557Z,57.48
2018-09-19T21:27:59.842Z,57.40
2018-09-19T21:30:29.050Z,57.22
2018-09-19T21:32:58.281Z,57.79
2018-09-19T21:35:27.567Z,57.78
2018-09-19T21:37:56.512Z,57.49
2018-09-19T21:40:26.065Z,57.55
2018-09-19T21:42:55.418Z,58.47
2018-09-19T21:45:24.414Z,58.43
2018-09-19T21:47:53.612Z,57.99
2018-09-19T21:50:22.799Z,58.16
2018-09-19T21:52:52.043Z,58.42
2018-09-19T21:55:21.283Z,59.18
2018-09-19T21:57:50.482Z,59.25
2018-09-19T22:00:19.912Z,59.33
2018-09-19T22:02:49.109Z,58.67
2018-09-19T22:05:18.272Z,58.96
2018-09-19T22:07:47.471Z,59.25
2018-09-19T22:10:16.565Z,59.63
2018-09-19T22:12:46.057Z,59.14
2018-09-19T22:15:15.539Z,59.08
2018-09-19T22:17:44.843Z,58.95
2018-09-19T22:20:14.003Z,59.18
2018-09-19T22:22:43.220Z,59.47
2018-09-19T22:25:12.507Z,58.98
2018-09-19T22:27:41.602Z,59.38
2018-09-19T22:30:10.889Z,59.16
2018-09-19T22:32:39.926Z,59.77
2018-09-19T22:35:08.915Z,59.20
2018-09-19T22:37:38.285Z,59.69
2018-09-19T22:40:10.121Z,59.69
2018-09-19T22:42:39.352Z,59.83
2018-09-19T22:45:08.748Z,59.75
2018-09-19T22:47:37.867Z,59.09
2018-09-19T22:50:07.157Z,59.65
2018-09-19T22:52:36.519Z,59.60
2018-09-19T22:55:05.929Z,59.40
2018-09-19T22:57:35.194Z,59.45
2018-09-19T23:00:04.459Z,59.28
2018-09-19T23:02:33.525Z,59.64
2018-09-19T23:05:02.671Z,60.02
2018-09-19T23:07:32.189Z,59.94
2018-09-19T23:10:01.752Z,59.93
2018-09-19T23:12:30.957Z,60.20
2018-09-19T23:15:00.248Z,60.08
2018-09-19T23:17:29.990Z,60.14
2018-09-19T23:19:59.762Z,59.45
2018-09-19T23:22:29.259Z,59.52
2018-09-19T23:24:58.344Z,60.22
2018-09-19T23:27:27.633Z,59.87
2018-09-19T23:29:57.637Z,59.89
2018-09-19T23:32:26.968Z,60.18
2018-09-19T23:34:56.295Z,60.41
2018-09-19T23:37:25.611Z,60.24
2018-09-19T23:39:54.642Z,60.42
2018-09-19T23:42:23.883Z,61.10
2018-09-19T23:44:53.216Z,60.44
2018-09-19T23:47:22.470Z,61.07
2018-09-19T23:49:51.606Z,61.37
2018-09-19T23:52:20.951Z,60.83
2018-09-19T23:54:51.393Z,60.82
2018-09-19T23:57:20.561Z,61.58
2018-09-19T23:59:49.886Z,61.18
